Flight Track Log - Related Links

Times and Time Zones

All times are in EDT time to prevent confusion due to time zone crossing. See the DAL1116 flight status page for this flight to view local times or setup timezone preferences in your user account.

Time Position Orientation Groundspeed Altitude Reporting Facility
EDT Latitude Longitude Course Direction KTS MPH feet Rate Location/Type
Sun 09:03:02 PM 36.0753 -115.1739 271° West 175 201 3,300  Level Los Angeles Center
Sun 09:04:03 PM 36.0767 -115.2406 271° West 202 232 4,800 1,519 Climbing Los Angeles Center
Sun 09:04:21 PM 36.0772 -115.2636 272° West 219 252 5,300 2,516 Climbing Los Angeles Center
Sun 09:05:05 PM 36.1211 -115.2925 332° Northwest 248 285 7,400 2,774 Climbing Los Angeles Center
Sun 09:06:07 PM 36.1761 -115.2469 34° Northeast 260 299 10,200 1,935 Climbing Los Angeles Center
Sun 09:07:09 PM 36.1978 -115.1475 75° East 306 352 11,400 1,065 Climbing Los Angeles Center
Sun 09:08:11 PM 36.1964 -115.0183 91° East 378 435 12,400 1,597 Climbing Los Angeles Center
Sun 09:09:13 PM 36.1981 -114.8775 89° East 407 468 14,700 2,341 Climbing Los Angeles Center
Sun 09:10:14 PM 36.1989 -114.6997 90° East 429 494 17,200 2,244 Climbing Los Angeles Center
Sun 09:11:16 PM 36.1958 -114.5464 91° East 443 510 19,300 1,676 Climbing Los Angeles Center
Sun 09:12:30 PM 36.1933 -114.3881 91° East 458 527 21,000 1,533 Climbing Los Angeles Center
Sun 09:13:33 PM 36.1964 -114.1925 89° East 473 544 22,800 1,584 Climbing Los Angeles Center
Sun 09:14:35 PM 36.2178 -114.0267 81° East 488 562 24,300 1,355 Climbing Los Angeles Center
Sun 09:15:37 PM 36.2389 -113.8572 81° East 496 571 25,600 1,355 Climbing Los Angeles Center
Sun 09:16:39 PM 36.2619 -113.6506 82° East 504 580 27,100 1,452 Climbing Los Angeles Center
Sun 09:17:41 PM 36.2828 -113.4786 81° East 506 582 28,600 1,220 Climbing Los Angeles Center
Sun 09:18:42 PM 36.2975 -113.3419 82° East 502 578 29,600 1,113 Climbing Los Angeles Center
Sun 09:19:45 PM 36.3367 -113.1569 75° East 498 573 30,900 672 Climbing Los Angeles Center
Sun 09:20:47 PM 36.4042 -112.9756 65° Northeast 485 558 31,000 48 Climbing Los Angeles Center
Sun 09:21:49 PM 36.4594 -112.8236 66° East 484 557 31,000  Level Los Angeles Center
Sun 09:22:51 PM 36.5156 -112.6700 66° East 489 563 31,000  Level Los Angeles Center
Sun 09:23:52 PM 36.5736 -112.5158 65° Northeast 492 566 31,000  Level Los Angeles Center
Sun 09:24:54 PM 36.6289 -112.3628 66° East 490 564 31,000  Level Los Angeles Center
Sun 09:25:56 PM 36.6958 -112.1792 66° East 489 563 31,000  Level Los Angeles Center
Sun 09:26:24 PM 36.7167 -112.1208 66° East 489 563 31,000  Level Denver Center
Sun 09:27:26 PM 36.7728 -111.9664 66° East 491 565 31,000  Level Denver Center
Sun 09:28:28 PM 36.8300 -111.8106 65° Northeast 495 570 31,000 48 Level Denver Center
Sun 09:29:30 PM 36.8861 -111.6522 66° East 500 575 31,100 49 Climbing Denver Center
Sun 09:30:31 PM 36.9544 -111.4619 66° East 501 577 31,100 -49 Level Denver Center
Sun 09:31:33 PM 37.0072 -111.3075 67° East 495 570 31,000 -48 Descending Denver Center
Sun 09:32:35 PM 37.0622 -111.1494 66° East 498 573 31,000  Level Denver Center
Sun 09:33:37 PM 37.1169 -110.9919 66° East 496 571 31,000  Level Denver Center
Sun 09:34:39 PM 37.1717 -110.8333 67° East 498 573 31,000  Level Denver Center
Sun 09:35:40 PM 37.2267 -110.6742 67° East 498 573 31,000  Level Denver Center
Sun 09:36:42 PM 37.2925 -110.4844 66° East 496 571 31,000  Level Denver Center
Sun 09:37:44 PM 37.3472 -110.3228 67° East 503 579 31,000 48 Level Denver Center
Sun 09:38:46 PM 37.4019 -110.1586 67° East 506 582 31,100  Climbing Denver Center
Sun 09:39:48 PM 37.4547 -110.0033 67° East 505 581 31,000 -49 Descending Denver Center
Sun 09:40:49 PM 37.5156 -109.8219 67° East 503 579 31,000  Level Denver Center
Sun 09:41:51 PM 37.5683 -109.6656 67° East 505 581 31,000  Level Denver Center
Sun 09:42:53 PM 37.6283 -109.4819 68° East 507 583 31,000  Level Denver Center
Sun 09:43:55 PM 37.6806 -109.3256 67° East 505 581 31,000  Level Denver Center
Sun 09:44:56 PM 37.7319 -109.1686 67° East 504 580 31,000  Level Denver Center
Sun 09:45:58 PM 37.7922 -108.9839 68° East 508 585 31,000  Level Denver Center
Sun 09:47:00 PM 37.8444 -108.8269 67° East 506 582 31,000  Level Denver Center
Sun 09:48:02 PM 37.9092 -108.6444 66° East 508 585 31,000  Level Denver Center
Sun 09:49:04 PM 37.9644 -108.4869 66° East 509 586 31,000  Level Denver Center
Sun 09:50:06 PM 38.0269 -108.3022 67° East 510 587 31,000  Level Denver Center
Sun 09:51:08 PM 38.0833 -108.1375 66° East 514 592 31,000 32 Level Denver Center
Sun 09:53:11 PM 38.1992 -107.7950 67° East 510 587 31,100  Climbing Denver Center
Sun 09:54:13 PM 38.2525 -107.6389 66° East 506 582 31,000 -48 Descending Denver Center
Sun 09:55:15 PM 38.3133 -107.4575 67° East 501 577 31,000  Level Denver Center
Sun 09:56:18 PM 38.3661 -107.2989 67° East 506 582 31,000  Level Denver Center
Sun 09:57:19 PM 38.4242 -107.1269 67° East 508 585 31,000 32 Level Denver Center
Sun 09:59:23 PM 38.5736 -106.8206 58° Northeast 508 585 31,100  Climbing Denver Center
Sun 10:00:25 PM 38.6517 -106.6722 56° Northeast 505 581 31,000 -48 Descending Denver Center
Sun 10:01:27 PM 38.7314 -106.5267 55° Northeast 501 577 31,000  Level Denver Center
Sun 10:02:28 PM 38.8261 -106.3492 56° Northeast 503 579 31,000  Level Denver Center
Sun 10:03:30 PM 38.9014 -106.2081 56° Northeast 505 581 31,000  Level Denver Center
Sun 10:04:32 PM 38.9908 -106.0400 56° Northeast 507 583 31,000  Level Denver Center
Sun 10:05:34 PM 39.0708 -105.8892 56° Northeast 506 582 31,000  Level Denver Center
Sun 10:06:36 PM 39.1508 -105.7386 56° Northeast 504 580 31,000  Level Denver Center
Sun 10:07:38 PM 39.2292 -105.5872 56° Northeast 504 580 31,000  Level Denver Center
Sun 10:08:40 PM 39.3078 -105.4361 56° Northeast 501 577 31,000  Level Denver Center
Sun 10:09:42 PM 39.3875 -105.2844 56° Northeast 502 578 31,000  Level Denver Center
Sun 10:10:44 PM 39.4656 -105.1342 56° Northeast 494 568 31,000 -48 Level Denver Center
Sun 10:11:46 PM 39.5575 -104.9542 56° Northeast 505 581 30,900  Descending Denver Center
Sun 10:12:48 PM 39.6353 -104.8014 56° Northeast 500 575 31,000 48 Climbing Denver Center
Sun 10:13:50 PM 39.7075 -104.6669 55° Northeast 537 618 31,000  Level Denver Center
Sun 10:14:52 PM 39.7975 -104.4850 57° Northeast 507 583 31,000  Level Denver Center
Sun 10:15:54 PM 39.8767 -104.3272 57° Northeast 506 582 31,000  Level Denver Center
Sun 10:16:56 PM 39.9544 -104.1700 57° Northeast 508 585 31,000  Level Denver Center
Sun 10:17:57 PM 40.0319 -104.0161 57° Northeast 499 574 31,000  Level Denver Center
Sun 10:18:59 PM 40.1086 -103.8622 57° Northeast 500 575 31,000 48 Level Denver Center
Sun 10:20:01 PM 40.1842 -103.7103 57° Northeast 488 562 31,100  Climbing Denver Center
Sun 10:21:03 PM 40.2586 -103.5583 57° Northeast 489 563 31,000 -48 Descending Denver Center
Sun 10:22:05 PM 40.3344 -103.4036 57° Northeast 498 573 31,000  Level Denver Center
Sun 10:23:07 PM 40.4100 -103.2478 57° Northeast 501 577 31,000  Level Denver Center
Sun 10:24:09 PM 40.4986 -103.0656 57° Northeast 503 579 31,000  Level Denver Center
Sun 10:25:11 PM 40.5753 -102.9075 57° Northeast 507 583 31,000  Level Denver Center
Sun 10:26:13 PM 40.6517 -102.7475 58° Northeast 511 588 31,000 48 Level Denver Center
Sun 10:27:15 PM 40.7317 -102.5817 57° Northeast 510 587 31,100  Climbing Denver Center
Sun 10:28:17 PM 40.8017 -102.4328 58° Northeast 502 578 31,000 -48 Descending Denver Center
Sun 10:29:19 PM 40.8792 -102.2683 58° Northeast 477 549 31,000  Level Denver Center
Sun 10:30:21 PM 40.9475 -102.1228 58° Northeast 483 556 31,000  Level Denver Center
Sun 10:31:23 PM 41.0158 -101.9778 58° Northeast 484 557 31,000  Level Denver Center
Sun 10:32:24 PM 41.0947 -101.8072 58° Northeast 485 558 31,000  Level Denver Center
Sun 10:33:26 PM 41.1628 -101.6617 58° Northeast 485 558 31,000  Level Denver Center
Sun 10:34:28 PM 41.2417 -101.4889 59° Northeast 487 560 31,000  Level Denver Center
Sun 10:35:30 PM 41.3103 -101.3417 58° Northeast 488 562 31,000  Level Denver Center
Sun 10:36:32 PM 41.3892 -101.1683 59° Northeast 486 559 31,000  Level Denver Center
Sun 10:37:33 PM 41.4553 -101.0200 59° Northeast 485 558 31,000  Level Denver Center
Sun 10:38:35 PM 41.5219 -100.8731 59° Northeast 483 556 31,000  Level Denver Center
Sun 10:39:37 PM 41.5989 -100.7008 59° Northeast 483 556 31,000 48 Level Denver Center
Sun 10:40:39 PM 41.6658 -100.5522 59° Northeast 486 559 31,100  Climbing Denver Center
Sun 10:41:40 PM 41.7406 -100.3825 59° Northeast 476 548 31,000 -49 Descending Denver Center
Sun 10:42:42 PM 41.8047 -100.2397 59° Northeast 469 540 31,000  Level Denver Center
Sun 10:43:44 PM 41.8772 -100.0717 60° Northeast 466 536 31,000  Level Denver Center
Sun 10:44:46 PM 41.9397 -99.9292 59° Northeast 463 533 31,000  Level Denver Center
Sun 10:45:47 PM 42.0025 -99.7847 60° Northeast 467 537 31,000  Level Denver Center
Sun 10:46:49 PM 42.0772 -99.6133 60° Northeast 469 540 31,000 48 Level Denver Center
Sun 10:47:51 PM 42.1431 -99.4594 60° Northeast 470 541 31,100 49 Climbing Denver Center
Sun 10:48:52 PM 42.2092 -99.3050 60° Northeast 473 544 31,100 -49 Level Denver Center
Sun 10:49:54 PM 42.2744 -99.1517 60° Northeast 471 542 31,000 -48 Descending Denver Center
Sun 10:50:56 PM 42.3394 -98.9981 60° Northeast 470 541 31,000  Level Denver Center
Sun 10:51:57 PM 42.4039 -98.8467 60° Northeast 466 536 31,000  Level Denver Center
Sun 10:52:59 PM 42.4611 -98.6900 64° Northeast 463 533 31,000  Level Denver Center
Sun 10:54:00 PM 42.4956 -98.5208 75° East 465 535 31,000 244 Level Minneapolis Center
Sun 10:55:02 PM 42.5175 -98.3467 80° East 467 537 31,500 976 Climbing Minneapolis Center
Sun 10:56:03 PM 42.5472 -98.1364 79° East 472 543 33,000 1,180 Climbing Minneapolis Center
Sun 10:57:04 PM 42.5711 -97.9583 80° East 478 550 33,900 885 Climbing Minneapolis Center
Sun 10:58:05 PM 42.5953 -97.7786 80° East 478 550 34,800 829 Climbing Minneapolis Center
Sun 10:59:07 PM 42.6192 -97.5978 80° East 485 558 35,600 780 Climbing Minneapolis Center
Sun 11:00:08 PM 42.6422 -97.4150 80° East 489 563 36,400 689 Climbing Minneapolis Center
Sun 11:01:09 PM 42.6658 -97.2322 80° East 490 564 37,000 295 Climbing Minneapolis Center
Sun 11:02:10 PM 42.6878 -97.0689 80° East 486 559 37,000  Level Minneapolis Center
Sun 11:03:11 PM 42.7144 -96.8497 81° East 491 565 37,000  Level Minneapolis Center
Sun 11:04:13 PM 42.7364 -96.6697 81° East 487 560 37,000  Level Minneapolis Center
Sun 11:05:14 PM 42.7586 -96.4864 81° East 492 566 37,000  Level Minneapolis Center
Sun 11:06:15 PM 42.7803 -96.3053 81° East 489 563 37,000  Level Minneapolis Center
Sun 11:07:16 PM 42.8025 -96.1219 81° East 493 567 37,000 49 Level Minneapolis Center
Sun 11:08:18 PM 42.8236 -95.9400 81° East 489 563 37,100  Climbing Minneapolis Center
Sun 11:09:19 PM 42.8447 -95.7572 81° East 490 564 37,000 -49 Descending Minneapolis Center
Sun 11:10:20 PM 42.8653 -95.5764 81° East 488 562 37,000  Level Minneapolis Center
Sun 11:11:21 PM 42.8892 -95.3597 81° East 484 557 37,000  Level Minneapolis Center
Sun 11:12:22 PM 42.9092 -95.1778 81° East 487 560 37,000  Level Minneapolis Center
Sun 11:13:24 PM 42.9286 -94.9969 82° East 484 557 37,000 49 Level Minneapolis Center
Sun 11:14:25 PM 42.9486 -94.8122 82° East 491 565 37,100  Climbing Minneapolis Center
Sun 11:15:26 PM 42.9672 -94.6283 82° East 493 567 37,000 -49 Descending Minneapolis Center
Sun 11:16:27 PM 42.9856 -94.4450 82° East 500 575 37,000  Level Minneapolis Center
Sun 11:17:29 PM 43.0072 -94.2583 81° East 502 578 37,000  Level Minneapolis Center
Sun 11:18:31 PM 43.0231 -94.0711 83° East 501 577 37,000  Level Minneapolis Center
Sun 11:19:32 PM 43.0461 -93.8425 82° East 509 586 37,000  Level Minneapolis Center
Sun 11:20:34 PM 43.0636 -93.6531 83° East 508 585 37,000  Level Minneapolis Center
Sun 11:21:35 PM 43.0825 -93.4647 82° East 506 582 37,000  Level Minneapolis Center
Sun 11:22:36 PM 43.0978 -93.2767 84° East 504 580 37,000  Level Minneapolis Center
Sun 11:23:37 PM 43.1008 -93.0883 89° East 501 577 37,000  Level Minneapolis Center
Sun 11:24:38 PM 43.1044 -92.8969 88° East 505 581 37,000  Level Minneapolis Center
Sun 11:25:39 PM 43.1089 -92.7050 88° East 508 585 37,000  Level Minneapolis Center
Sun 11:26:40 PM 43.1131 -92.5119 88° East 510 587 37,000  Level Minneapolis Center
Sun 11:27:42 PM 43.1169 -92.2825 89° East 507 583 37,000  Level Minneapolis Center
Sun 11:28:43 PM 43.1200 -92.0872 89° East 511 588 37,000  Level Minneapolis Center
Sun 11:29:44 PM 43.1236 -91.8914 88° East 514 592 37,000  Level Minneapolis Center
Sun 11:30:45 PM 43.1258 -91.6947 89° East 515 593 37,000  Level Minneapolis Center
Sun 11:31:46 PM 43.1283 -91.4975 89° East 516 594 37,000  Level Minneapolis Center
Sun 11:32:47 PM 43.1303 -91.2997 89° East 518 596 37,000  Level Minneapolis Center
Sun 11:33:48 PM 43.1314 -91.1044 89° East 517 595 37,000  Level Minneapolis Center
Sun 11:34:49 PM 43.1314 -90.9086 90° East 516 594 37,000  Level Minneapolis Center
Sun 11:35:50 PM 43.1328 -90.7117 89° East 518 596 37,000  Level Minneapolis Center
Sun 11:36:51 PM 43.1336 -90.5153 90° East 519 597 37,000  Level Minneapolis Center
Sun 11:37:11 PM 43.1353 -90.4383 88° East 520 598 37,000  Level Chicago Center
Sun 11:38:12 PM 43.1344 -90.2211 90° East 518 596 37,000  Level Chicago Center
Sun 11:39:12 PM 43.1336 -90.0231 90° East 520 598 37,000  Level Chicago Center
Sun 11:40:13 PM 43.1328 -89.8289 90° East 513 590 37,000  Level Chicago Center
Sun 11:41:14 PM 43.1314 -89.6336 90° East 513 590 37,000  Level Chicago Center
Sun 11:42:14 PM 43.1314 -89.4383 90° East 511 588 37,000  Level Chicago Center
Sun 11:43:15 PM 43.1297 -89.2436 91° East 512 589 37,000  Level Chicago Center
Sun 11:44:15 PM 43.1264 -89.0500 91° East 511 588 37,000  Level Chicago Center
Sun 11:45:16 PM 43.1244 -88.8556 91° East 513 590 37,000  Level Chicago Center
Sun 11:46:17 PM 43.1225 -88.6625 91° East 511 588 37,000  Level Chicago Center
Sun 11:47:17 PM 43.1067 -88.4733 96° East 506 582 37,000  Level Chicago Center
Sun 11:48:18 PM 43.0767 -88.2858 102° East 507 583 37,000  Level Chicago Center
Sun 11:49:19 PM 43.0478 -88.0964 102° East 510 587 37,000  Level Chicago Center
Sun 11:50:19 PM 43.0022 -87.8817 106° East 505 581 37,000  Level Chicago Center
Sun 11:51:20 PM 42.9739 -87.6922 101° East 509 586 37,000  Level Chicago Center
Sun 11:52:20 PM 42.9442 -87.5044 102° East 508 585 37,000  Level Chicago Center
Sun 11:53:21 PM 42.9192 -87.3406 102° East 510 587 37,000  Level Chicago Center
Sun 11:54:21 PM 42.8889 -87.1517 102° East 513 590 37,000  Level Chicago Center
Sun 11:55:22 PM 42.8583 -86.9614 102° East 515 593 37,000  Level Chicago Center
Sun 11:56:22 PM 42.8286 -86.7717 102° East 515 593 37,000  Level Chicago Center
Sun 11:57:23 PM 42.7964 -86.5825 103° East 516 594 37,000  Level Chicago Center
Sun 11:58:24 PM 42.7583 -86.3569 103° East 515 593 37,000 -99 Level Chicago Center
Sun 11:59:24 PM 42.7272 -86.1689 103° East 516 594 36,800 -1,091 Descending Chicago Center
Mon 12:00:25 AM 42.6958 -85.9825 103° East 515 593 34,800 -2,579 Descending Chicago Center
Mon 12:01:25 AM 42.6628 -85.7939 103° East 520 598 31,600 -3,000 Descending Chicago Center
Mon 12:02:25 AM 42.6308 -85.6072 103° East 515 593 28,800 -2,628 Descending Chicago Center
Mon 12:03:26 AM 42.6000 -85.4300 103° East 492 566 26,300 -2,430 Descending Chicago Center
Mon 12:04:26 AM 42.5708 -85.2586 103° East 478 550 23,900 -2,331 Descending Chicago Center
Mon 12:05:27 AM 42.5411 -85.0961 104° East 456 525 21,600 -1,488 Descending Chicago Center
Mon 12:06:27 AM 42.5125 -84.9375 104° East 440 506 20,900 -1,736 Descending Chicago Center
Mon 12:07:28 AM 42.4822 -84.7717 104° East 448 516 18,100 -2,300 Descending Chicago Center
Mon 12:08:27 AM 42.4506 -84.5992 104° East 415 478 16,300 -1,782 Descending Cleveland Center
Mon 12:09:09 AM 42.4292 -84.4964 106° East 403 464 15,100 -1,469 Descending Cleveland Center
Mon 12:10:05 AM 42.4072 -84.3714 103° East 373 429 13,900 -1,342 Descending FAA TRACON SMA TRACON (SMA)
Mon 12:10:25 AM 42.3986 -84.3208 103° East 360 414 13,400 -1,050 Descending FAA TRACON SMA TRACON (SMA)
Mon 12:10:45 AM 42.3908 -84.2817 105° East 353 406 13,200 -900 Descending FAA TRACON SMA TRACON (SMA)
Mon 12:11:05 AM 42.3839 -84.2439 104° East 342 394 12,800 -1,500 Descending FAA TRACON SMA TRACON (SMA)
Mon 12:11:25 AM 42.3753 -84.1978 104° East 332 382 12,200 -1,500 Descending FAA TRACON SMA TRACON (SMA)
Mon 12:11:45 AM 42.3683 -84.1617 105° East 327 376 11,800 -1,200 Descending FAA TRACON SMA TRACON (SMA)
Mon 12:12:05 AM 42.3617 -84.1258 104° East 324 373 11,400 -1,500 Descending FAA TRACON SMA TRACON (SMA)
Mon 12:12:25 AM 42.3633 -84.0803 87° East 315 362 10,800 -1,500 Descending FAA TRACON SMA TRACON (SMA)
Mon 12:12:45 AM 42.3664 -84.0444 83° East 311 358 10,400 -1,350 Descending FAA TRACON SMA TRACON (SMA)
Mon 12:13:05 AM 42.3694 -84.0089 83° East 310 357 9,900 -1,650 Descending FAA TRACON SMA TRACON (SMA)
Mon 12:13:25 AM 42.3728 -83.9650 84° East 308 354 9,300 -1,500 Descending FAA TRACON SMA TRACON (SMA)
Mon 12:13:45 AM 42.3756 -83.9300 84° East 306 352 8,900 -1,500 Descending FAA TRACON SMA TRACON (SMA)
Mon 12:14:05 AM 42.3789 -83.8867 84° East 304 350 8,300 -1,650 Descending FAA TRACON SMA TRACON (SMA)
Mon 12:14:25 AM 42.3817 -83.8519 84° East 303 349 7,800 -1,350 Descending FAA TRACON SMA TRACON (SMA)
Mon 12:14:45 AM 42.3844 -83.8175 84° East 301 346 7,400 -1,200 Descending FAA TRACON SMA TRACON (SMA)
Mon 12:15:05 AM 42.3883 -83.7744 83° East 301 346 7,000 -600 Descending FAA TRACON SMA TRACON (SMA)
Mon 12:15:25 AM 42.3914 -83.7400 83° East 300 345 7,000  Level FAA TRACON SMA TRACON (SMA)
Mon 12:15:54 AM 42.3961 -83.6897 83° East 296 341 7,000  Level FAA TRACON SMA TRACON (SMA)
Mon 12:16:14 AM 42.3994 -83.6564 82° East 294 338 7,000  Level FAA TRACON SMA TRACON (SMA)
Mon 12:16:45 AM 42.4047 -83.5981 83° East 291 335 7,000  Level FAA TRACON SMA TRACON (SMA)
Mon 12:17:05 AM 42.4078 -83.5606 84° East 260 299 7,000 -300 Level FAA TRACON SMA TRACON (SMA)
Mon 12:17:25 AM 42.4106 -83.5308 83° East 261 300 6,800 -1,050 Descending FAA TRACON SMA TRACON (SMA)
Mon 12:17:45 AM 42.4136 -83.4931 84° East 270 311 6,300 -1,350 Descending FAA TRACON SMA TRACON (SMA)
Mon 12:18:05 AM 42.4164 -83.4625 83° East 267 307 5,900 -1,371 Descending FAA TRACON SMA TRACON (SMA)
Mon 12:18:20 AM 42.4122 -83.4378 103° East 268 308 5,500 -1,700 Descending Cleveland Center
Mon 12:19:05 AM 42.4261 -83.3692 75° East 251 289 4,200 -1,385 Descending FAA TRACON SMA TRACON (SMA)
Mon 12:19:25 AM 42.4256 -83.3403 91° East 305 351 4,000 -293 Descending FAA TRACON SMA TRACON (SMA)
Mon 12:19:46 AM 42.4214 -83.3094 100° East 215 247 4,000  Level FAA TRACON SMA TRACON (SMA)
Mon 12:20:05 AM 42.4186 -83.2869 99° East 204 235 4,000  Level FAA TRACON SMA TRACON (SMA)
Mon 12:20:25 AM 42.4092 -83.2694 126° Southeast 186 214 4,000  Level FAA TRACON SMA TRACON (SMA)
Mon 12:20:45 AM 42.3914 -83.2625 164° South 178 205 4,000 -300 Level FAA TRACON SMA TRACON (SMA)
Mon 12:21:05 AM 42.3769 -83.2581 167° South 179 206 3,800 -585 Descending FAA TRACON SMA TRACON (SMA)
Mon 12:21:26 AM 42.3600 -83.2531 168° South 179 206 3,600 -600 Descending FAA TRACON SMA TRACON (SMA)
Mon 12:21:45 AM 42.3417 -83.2494 172° South 178 205 3,400 -615 Descending FAA TRACON SMA TRACON (SMA)
Mon 12:22:05 AM 42.3281 -83.2550 197° South 172 198 3,200 -900 Descending FAA TRACON SMA TRACON (SMA)
Mon 12:22:25 AM 42.3128 -83.2656 207° Southwest 169 194 2,800 -1,050 Descending FAA TRACON SMA TRACON (SMA)
Mon 12:22:45 AM 42.3014 -83.2744 210° Southwest 169 194 2,500 -900 Descending FAA TRACON SMA TRACON (SMA)
Mon 12:23:05 AM 42.2856 -83.2856 207° Southwest 167 192 2,200 -900 Descending FAA TRACON SMA TRACON (SMA)
Mon 12:23:25 AM 42.2744 -83.2939 209° Southwest 150 173 1,900 -900 Descending FAA TRACON SMA TRACON (SMA)
Mon 12:23:45 AM 42.2617 -83.3033 209° Southwest 140 161 1,600 -750 Descending FAA TRACON SMA TRACON (SMA)
Mon 12:24:05 AM 42.2519 -83.3106 209° Southwest 137 158 1,400 -600 Descending FAA TRACON SMA TRACON (SMA)

Login

Don't have an account? Register now (free) for customized features, flight alerts, and more!